sensor_id;sensor_type;location;lat;lon;timestamp;P1;durP1;ratioP1;P2;durP2;ratioP2
47455;SDS011;33202;48.512;-2.780;2023-03-13T00:00:17;19.85;;;3.88;;
47455;SDS011;33202;48.512;-2.780;2023-03-13T00:02:43;14.52;;;3.47;;
47455;SDS011;33202;48.512;-2.780;2023-03-13T00:05:12;17.10;;;4.00;;
47455;SDS011;33202;48.512;-2.780;2023-03-13T00:07:39;16.35;;;4.40;;
47455;SDS011;33202;48.512;-2.780;2023-03-13T00:10:05;16.25;;;4.15;;
47455;SDS011;33202;48.512;-2.780;2023-03-13T00:12:31;21.07;;;4.33;;
47455;SDS011;33202;48.512;-2.780;2023-03-13T00:14:57;17.35;;;4.28;;
47455;SDS011;33202;48.512;-2.780;2023-03-13T00:17:23;20.02;;;4.65;;
47455;SDS011;33202;48.512;-2.780;2023-03-13T00:19:49;16.73;;;4.18;;
47455;SDS011;33202;48.512;-2.780;2023-03-13T00:22:16;18.10;;;4.45;;
47455;SDS011;33202;48.512;-2.780;2023-03-13T00:24:41;18.90;;;4.20;;
47455;SDS011;33202;48.512;-2.780;2023-03-13T00:27:07;18.67;;;4.20;;
47455;SDS011;33202;48.512;-2.780;2023-03-13T00:29:33;19.02;;;4.78;;
47455;SDS011;33202;48.512;-2.780;2023-03-13T00:32:00;21.83;;;5.35;;
47455;SDS011;33202;48.512;-2.780;2023-03-13T00:34:26;18.85;;;5.40;;
47455;SDS011;33202;48.512;-2.780;2023-03-13T00:36:53;19.77;;;4.83;;
47455;SDS011;33202;48.512;-2.780;2023-03-13T00:39:20;17.35;;;4.32;;
47455;SDS011;33202;48.512;-2.780;2023-03-13T00:41:46;20.38;;;4.88;;
47455;SDS011;33202;48.512;-2.780;2023-03-13T00:44:13;17.02;;;4.43;;
47455;SDS011;33202;48.512;-2.780;2023-03-13T00:46:39;17.52;;;4.68;;
47455;SDS011;33202;48.512;-2.780;2023-03-13T00:49:05;23.35;;;5.82;;
47455;SDS011;33202;48.512;-2.780;2023-03-13T00:51:31;26.67;;;5.63;;
47455;SDS011;33202;48.512;-2.780;2023-03-13T00:53:57;17.27;;;4.95;;
47455;SDS011;33202;48.512;-2.780;2023-03-13T00:56:27;22.77;;;5.38;;
47455;SDS011;33202;48.512;-2.780;2023-03-13T00:58:54;22.35;;;5.20;;
47455;SDS011;33202;48.512;-2.780;2023-03-13T01:03:50;20.27;;;5.03;;
47455;SDS011;33202;48.512;-2.780;2023-03-13T01:06:17;21.08;;;4.50;;
47455;SDS011;33202;48.512;-2.780;2023-03-13T01:08:45;22.27;;;5.15;;
47455;SDS011;33202;48.512;-2.780;2023-03-13T01:11:11;19.95;;;5.22;;
47455;SDS011;33202;48.512;-2.780;2023-03-13T01:13:39;16.30;;;4.72;;
47455;SDS011;33202;48.512;-2.780;2023-03-13T01:16:06;14.52;;;4.72;;
47455;SDS011;33202;48.512;-2.780;2023-03-13T01:18:40;18.02;;;4.88;;
47455;SDS011;33202;48.512;-2.780;2023-03-13T01:21:07;17.33;;;5.70;;
47455;SDS011;33202;48.512;-2.780;2023-03-13T01:23:34;20.25;;;5.13;;
47455;SDS011;33202;48.512;-2.780;2023-03-13T01:25:59;16.73;;;4.07;;
47455;SDS011;33202;48.512;-2.780;2023-03-13T01:28:25;13.27;;;3.58;;
47455;SDS011;33202;48.512;-2.780;2023-03-13T01:30:51;12.40;;;3.78;;
47455;SDS011;33202;48.512;-2.780;2023-03-13T01:33:17;13.93;;;3.33;;
47455;SDS011;33202;48.512;-2.780;2023-03-13T01:35:43;12.10;;;2.78;;
47455;SDS011;33202;48.512;-2.780;2023-03-13T01:38:09;11.48;;;3.25;;
47455;SDS011;33202;48.512;-2.780;2023-03-13T01:40:42;8.23;;;2.97;;
47455;SDS011;33202;48.512;-2.780;2023-03-13T01:43:15;12.43;;;2.65;;
47455;SDS011;33202;48.512;-2.780;2023-03-13T01:45:52;9.98;;;2.65;;
47455;SDS011;33202;48.512;-2.780;2023-03-13T01:48:23;10.93;;;2.72;;
47455;SDS011;33202;48.512;-2.780;2023-03-13T01:50:58;8.43;;;2.40;;
47455;SDS011;33202;48.512;-2.780;2023-03-13T01:53:26;7.75;;;2.20;;
47455;SDS011;33202;48.512;-2.780;2023-03-13T01:55:54;6.50;;;2.40;;
47455;SDS011;33202;48.512;-2.780;2023-03-13T01:58:21;7.57;;;2.25;;
47455;SDS011;33202;48.512;-2.780;2023-03-13T02:00:47;7.90;;;1.90;;
47455;SDS011;33202;48.512;-2.780;2023-03-13T02:03:14;5.32;;;1.73;;
47455;SDS011;33202;48.512;-2.780;2023-03-13T02:05:43;6.47;;;1.45;;
47455;SDS011;33202;48.512;-2.780;2023-03-13T02:08:15;8.35;;;1.50;;
47455;SDS011;33202;48.512;-2.780;2023-03-13T02:10:52;3.58;;;1.50;;
47455;SDS011;33202;48.512;-2.780;2023-03-13T02:13:22;3.63;;;1.60;;
47455;SDS011;33202;48.512;-2.780;2023-03-13T02:15:49;5.07;;;1.30;;
47455;SDS011;33202;48.512;-2.780;2023-03-13T02:18:16;4.05;;;1.13;;
47455;SDS011;33202;48.512;-2.780;2023-03-13T02:20:41;3.63;;;0.88;;
47455;SDS011;33202;48.512;-2.780;2023-03-13T02:23:18;6.13;;;1.00;;
47455;SDS011;33202;48.512;-2.780;2023-03-13T02:26:06;2.83;;;0.80;;
47455;SDS011;33202;48.512;-2.780;2023-03-13T02:28:33;5.15;;;1.15;;
47455;SDS011;33202;48.512;-2.780;2023-03-13T02:31:03;1.92;;;0.57;;
47455;SDS011;33202;48.512;-2.780;2023-03-13T02:33:29;1.73;;;0.68;;
47455;SDS011;33202;48.512;-2.780;2023-03-13T02:35:59;2.35;;;0.50;;
47455;SDS011;33202;48.512;-2.780;2023-03-13T02:38:27;1.83;;;0.65;;
47455;SDS011;33202;48.512;-2.780;2023-03-13T02:40:57;2.20;;;0.60;;
47455;SDS011;33202;48.512;-2.780;2023-03-13T02:43:32;1.08;;;0.40;;
47455;SDS011;33202;48.512;-2.780;2023-03-13T02:46:03;1.05;;;0.52;;
47455;SDS011;33202;48.512;-2.780;2023-03-13T02:48:30;1.58;;;0.50;;
47455;SDS011;33202;48.512;-2.780;2023-03-13T02:50:58;3.13;;;0.50;;
47455;SDS011;33202;48.512;-2.780;2023-03-13T02:53:26;2.83;;;0.68;;
47455;SDS011;33202;48.512;-2.780;2023-03-13T02:55:52;1.88;;;0.60;;
47455;SDS011;33202;48.512;-2.780;2023-03-13T02:58:17;2.65;;;0.50;;
47455;SDS011;33202;48.512;-2.780;2023-03-13T03:00:43;4.00;;;0.73;;
47455;SDS011;33202;48.512;-2.780;2023-03-13T03:03:09;4.28;;;0.85;;
47455;SDS011;33202;48.512;-2.780;2023-03-13T03:05:35;3.33;;;0.93;;
47455;SDS011;33202;48.512;-2.780;2023-03-13T03:08:00;5.32;;;0.98;;
47455;SDS011;33202;48.512;-2.780;2023-03-13T03:10:26;3.97;;;0.70;;
47455;SDS011;33202;48.512;-2.780;2023-03-13T03:12:52;2.67;;;0.88;;
47455;SDS011;33202;48.512;-2.780;2023-03-13T03:15:17;3.20;;;1.20;;
47455;SDS011;33202;48.512;-2.780;2023-03-13T03:17:43;4.97;;;1.40;;
47455;SDS011;33202;48.512;-2.780;2023-03-13T03:20:09;5.88;;;1.13;;
47455;SDS011;33202;48.512;-2.780;2023-03-13T03:22:36;5.10;;;1.27;;
47455;SDS011;33202;48.512;-2.780;2023-03-13T03:25:04;6.68;;;1.50;;
47455;SDS011;33202;48.512;-2.780;2023-03-13T03:27:30;6.72;;;2.25;;
47455;SDS011;33202;48.512;-2.780;2023-03-13T03:29:56;9.05;;;1.90;;
47455;SDS011;33202;48.512;-2.780;2023-03-13T03:32:22;6.28;;;1.48;;
47455;SDS011;33202;48.512;-2.780;2023-03-13T03:34:47;9.75;;;2.08;;
47455;SDS011;33202;48.512;-2.780;2023-03-13T03:37:13;7.32;;;2.10;;
47455;SDS011;33202;48.512;-2.780;2023-03-13T03:39:39;8.82;;;2.30;;
47455;SDS011;33202;48.512;-2.780;2023-03-13T03:42:04;11.05;;;2.45;;
47455;SDS011;33202;48.512;-2.780;2023-03-13T03:44:30;9.50;;;3.05;;
47455;SDS011;33202;48.512;-2.780;2023-03-13T03:46:56;11.98;;;2.55;;
47455;SDS011;33202;48.512;-2.780;2023-03-13T03:49:21;15.40;;;2.72;;
47455;SDS011;33202;48.512;-2.780;2023-03-13T03:51:47;10.18;;;2.63;;
47455;SDS011;33202;48.512;-2.780;2023-03-13T03:54:13;19.17;;;3.50;;
47455;SDS011;33202;48.512;-2.780;2023-03-13T03:56:39;19.35;;;4.15;;
47455;SDS011;33202;48.512;-2.780;2023-03-13T03:59:04;12.98;;;3.78;;
47455;SDS011;33202;48.512;-2.780;2023-03-13T04:01:30;17.88;;;3.95;;
47455;SDS011;33202;48.512;-2.780;2023-03-13T04:03:56;17.08;;;4.20;;
47455;SDS011;33202;48.512;-2.780;2023-03-13T04:06:21;12.77;;;3.40;;
47455;SDS011;33202;48.512;-2.780;2023-03-13T04:08:47;11.43;;;3.08;;
47455;SDS011;33202;48.512;-2.780;2023-03-13T04:11:12;21.05;;;3.63;;
47455;SDS011;33202;48.512;-2.780;2023-03-13T04:13:38;19.60;;;3.72;;
47455;SDS011;33202;48.512;-2.780;2023-03-13T04:16:07;20.02;;;4.90;;
47455;SDS011;33202;48.512;-2.780;2023-03-13T04:18:33;17.52;;;3.90;;
47455;SDS011;33202;48.512;-2.780;2023-03-13T04:21:02;19.48;;;4.18;;
47455;SDS011;33202;48.512;-2.780;2023-03-13T04:23:29;19.10;;;4.68;;
47455;SDS011;33202;48.512;-2.780;2023-03-13T04:25:55;16.27;;;3.92;;
47455;SDS011;33202;48.512;-2.780;2023-03-13T04:28:20;15.73;;;4.47;;
47455;SDS011;33202;48.512;-2.780;2023-03-13T04:30:46;18.90;;;4.68;;
47455;SDS011;33202;48.512;-2.780;2023-03-13T04:33:11;18.83;;;4.47;;
47455;SDS011;33202;48.512;-2.780;2023-03-13T04:35:37;19.52;;;4.70;;
47455;SDS011;33202;48.512;-2.780;2023-03-13T04:38:03;21.15;;;4.22;;
47455;SDS011;33202;48.512;-2.780;2023-03-13T04:40:28;22.63;;;4.80;;
47455;SDS011;33202;48.512;-2.780;2023-03-13T04:42:54;22.35;;;4.80;;
47455;SDS011;33202;48.512;-2.780;2023-03-13T04:45:20;19.33;;;4.55;;
47455;SDS011;33202;48.512;-2.780;2023-03-13T04:47:45;18.50;;;4.40;;
47455;SDS011;33202;48.512;-2.780;2023-03-13T04:50:11;16.35;;;4.30;;
47455;SDS011;33202;48.512;-2.780;2023-03-13T04:52:37;18.52;;;4.35;;
47455;SDS011;33202;48.512;-2.780;2023-03-13T04:55:03;17.80;;;4.53;;
47455;SDS011;33202;48.512;-2.780;2023-03-13T04:57:29;18.92;;;4.60;;
47455;SDS011;33202;48.512;-2.780;2023-03-13T04:59:54;22.75;;;4.95;;
47455;SDS011;33202;48.512;-2.780;2023-03-13T05:02:20;22.60;;;4.72;;
47455;SDS011;33202;48.512;-2.780;2023-03-13T05:04:45;22.30;;;4.65;;
47455;SDS011;33202;48.512;-2.780;2023-03-13T05:07:11;27.60;;;5.40;;
47455;SDS011;33202;48.512;-2.780;2023-03-13T05:09:37;19.88;;;4.53;;
47455;SDS011;33202;48.512;-2.780;2023-03-13T05:12:02;19.27;;;4.57;;
47455;SDS011;33202;48.512;-2.780;2023-03-13T05:14:28;18.88;;;4.30;;
47455;SDS011;33202;48.512;-2.780;2023-03-13T05:16:54;19.92;;;4.15;;
47455;SDS011;33202;48.512;-2.780;2023-03-13T05:19:19;22.75;;;4.15;;
47455;SDS011;33202;48.512;-2.780;2023-03-13T05:21:45;19.48;;;5.22;;
47455;SDS011;33202;48.512;-2.780;2023-03-13T05:24:10;23.42;;;4.97;;
47455;SDS011;33202;48.512;-2.780;2023-03-13T05:26:36;21.75;;;4.97;;
47455;SDS011;33202;48.512;-2.780;2023-03-13T05:29:02;19.05;;;5.00;;
47455;SDS011;33202;48.512;-2.780;2023-03-13T05:31:27;22.25;;;4.80;;
47455;SDS011;33202;48.512;-2.780;2023-03-13T05:33:53;20.13;;;4.35;;
47455;SDS011;33202;48.512;-2.780;2023-03-13T05:36:18;22.10;;;4.85;;
47455;SDS011;33202;48.512;-2.780;2023-03-13T05:38:44;32.35;;;5.82;;
47455;SDS011;33202;48.512;-2.780;2023-03-13T05:41:10;21.45;;;4.93;;
47455;SDS011;33202;48.512;-2.780;2023-03-13T05:43:35;23.75;;;5.05;;
47455;SDS011;33202;48.512;-2.780;2023-03-13T05:46:01;26.75;;;6.32;;
47455;SDS011;33202;48.512;-2.780;2023-03-13T05:48:27;21.63;;;5.03;;
47455;SDS011;33202;48.512;-2.780;2023-03-13T05:50:52;20.27;;;4.93;;
47455;SDS011;33202;48.512;-2.780;2023-03-13T05:53:18;28.90;;;5.32;;
47455;SDS011;33202;48.512;-2.780;2023-03-13T05:55:43;37.53;;;6.60;;
47455;SDS011;33202;48.512;-2.780;2023-03-13T05:58:09;30.50;;;5.68;;
47455;SDS011;33202;48.512;-2.780;2023-03-13T06:00:34;25.10;;;5.50;;
47455;SDS011;33202;48.512;-2.780;2023-03-13T06:03:00;24.88;;;4.30;;
47455;SDS011;33202;48.512;-2.780;2023-03-13T06:05:26;28.27;;;5.65;;
47455;SDS011;33202;48.512;-2.780;2023-03-13T06:07:51;31.65;;;5.75;;
47455;SDS011;33202;48.512;-2.780;2023-03-13T06:10:17;27.02;;;6.65;;
47455;SDS011;33202;48.512;-2.780;2023-03-13T06:12:43;26.75;;;6.50;;
47455;SDS011;33202;48.512;-2.780;2023-03-13T06:15:08;29.30;;;5.82;;
47455;SDS011;33202;48.512;-2.780;2023-03-13T06:17:35;34.75;;;5.88;;
47455;SDS011;33202;48.512;-2.780;2023-03-13T06:20:00;34.70;;;5.95;;
47455;SDS011;33202;48.512;-2.780;2023-03-13T06:24:54;32.53;;;6.55;;
47455;SDS011;33202;48.512;-2.780;2023-03-13T06:27:21;25.30;;;6.22;;
47455;SDS011;33202;48.512;-2.780;2023-03-13T06:29:46;21.85;;;5.95;;
47455;SDS011;33202;48.512;-2.780;2023-03-13T06:32:12;30.20;;;7.47;;
47455;SDS011;33202;48.512;-2.780;2023-03-13T06:34:37;29.92;;;5.82;;
47455;SDS011;33202;48.512;-2.780;2023-03-13T06:37:03;33.47;;;7.00;;
47455;SDS011;33202;48.512;-2.780;2023-03-13T06:39:29;30.85;;;6.65;;
47455;SDS011;33202;48.512;-2.780;2023-03-13T06:41:55;32.25;;;6.55;;
47455;SDS011;33202;48.512;-2.780;2023-03-13T06:44:20;25.48;;;5.90;;
47455;SDS011;33202;48.512;-2.780;2023-03-13T06:46:46;33.40;;;6.00;;
47455;SDS011;33202;48.512;-2.780;2023-03-13T06:49:11;32.45;;;5.75;;
47455;SDS011;33202;48.512;-2.780;2023-03-13T06:51:37;37.97;;;7.15;;
47455;SDS011;33202;48.512;-2.780;2023-03-13T06:54:03;22.35;;;6.07;;
47455;SDS011;33202;48.512;-2.780;2023-03-13T06:56:28;38.00;;;6.47;;
47455;SDS011;33202;48.512;-2.780;2023-03-13T06:58:54;33.67;;;5.90;;
47455;SDS011;33202;48.512;-2.780;2023-03-13T07:01:19;29.23;;;5.85;;
47455;SDS011;33202;48.512;-2.780;2023-03-13T07:03:48;33.33;;;7.25;;
47455;SDS011;33202;48.512;-2.780;2023-03-13T07:06:14;33.53;;;7.22;;
47455;SDS011;33202;48.512;-2.780;2023-03-13T07:08:40;48.38;;;7.15;;
47455;SDS011;33202;48.512;-2.780;2023-03-13T07:11:08;41.08;;;6.60;;
47455;SDS011;33202;48.512;-2.780;2023-03-13T07:13:35;39.60;;;7.03;;
47455;SDS011;33202;48.512;-2.780;2023-03-13T07:16:05;35.75;;;6.95;;
47455;SDS011;33202;48.512;-2.780;2023-03-13T07:18:33;39.10;;;7.68;;
47455;SDS011;33202;48.512;-2.780;2023-03-13T07:21:00;35.35;;;6.97;;
47455;SDS011;33202;48.512;-2.780;2023-03-13T07:23:29;34.55;;;6.70;;
47455;SDS011;33202;48.512;-2.780;2023-03-13T07:25:56;31.37;;;6.50;;
47455;SDS011;33202;48.512;-2.780;2023-03-13T07:28:24;38.47;;;7.07;;
47455;SDS011;33202;48.512;-2.780;2023-03-13T07:30:50;33.80;;;6.75;;
47455;SDS011;33202;48.512;-2.780;2023-03-13T07:33:16;30.02;;;6.63;;
47455;SDS011;33202;48.512;-2.780;2023-03-13T07:35:47;33.33;;;6.68;;
47455;SDS011;33202;48.512;-2.780;2023-03-13T07:38:17;36.72;;;7.40;;
47455;SDS011;33202;48.512;-2.780;2023-03-13T07:40:50;37.95;;;9.00;;
47455;SDS011;33202;48.512;-2.780;2023-03-13T07:43:17;35.95;;;7.95;;
47455;SDS011;33202;48.512;-2.780;2023-03-13T07:45:53;32.05;;;8.85;;
47455;SDS011;33202;48.512;-2.780;2023-03-13T07:48:20;40.45;;;9.45;;
47455;SDS011;33202;48.512;-2.780;2023-03-13T07:50:47;34.22;;;9.85;;
47455;SDS011;33202;48.512;-2.780;2023-03-13T07:53:13;27.45;;;7.13;;
47455;SDS011;33202;48.512;-2.780;2023-03-13T07:55:50;30.85;;;7.07;;
47455;SDS011;33202;48.512;-2.780;2023-03-13T07:58:19;36.00;;;8.07;;
47455;SDS011;33202;48.512;-2.780;2023-03-13T08:00:45;30.42;;;5.88;;
47455;SDS011;33202;48.512;-2.780;2023-03-13T08:03:10;43.20;;;8.50;;
47455;SDS011;33202;48.512;-2.780;2023-03-13T08:05:36;29.55;;;7.07;;
47455;SDS011;33202;48.512;-2.780;2023-03-13T08:08:02;33.58;;;8.18;;
47455;SDS011;33202;48.512;-2.780;2023-03-13T08:10:27;33.22;;;7.47;;
47455;SDS011;33202;48.512;-2.780;2023-03-13T08:12:55;39.28;;;7.32;;
47455;SDS011;33202;48.512;-2.780;2023-03-13T08:15:20;30.52;;;6.35;;
47455;SDS011;33202;48.512;-2.780;2023-03-13T08:17:50;39.53;;;8.40;;
47455;SDS011;33202;48.512;-2.780;2023-03-13T08:20:17;36.72;;;8.43;;
47455;SDS011;33202;48.512;-2.780;2023-03-13T08:22:45;34.53;;;8.32;;
47455;SDS011;33202;48.512;-2.780;2023-03-13T08:25:15;39.88;;;8.95;;
47455;SDS011;33202;48.512;-2.780;2023-03-13T08:27:41;32.03;;;8.15;;
47455;SDS011;33202;48.512;-2.780;2023-03-13T08:30:07;52.15;;;9.98;;
47455;SDS011;33202;48.512;-2.780;2023-03-13T08:32:34;42.33;;;8.10;;
47455;SDS011;33202;48.512;-2.780;2023-03-13T08:35:00;33.80;;;6.38;;
47455;SDS011;33202;48.512;-2.780;2023-03-13T08:37:26;35.40;;;6.32;;
47455;SDS011;33202;48.512;-2.780;2023-03-13T08:39:52;30.50;;;6.60;;
47455;SDS011;33202;48.512;-2.780;2023-03-13T08:42:20;33.47;;;6.13;;
47455;SDS011;33202;48.512;-2.780;2023-03-13T08:44:49;30.38;;;6.40;;
47455;SDS011;33202;48.512;-2.780;2023-03-13T08:47:14;34.72;;;7.50;;
47455;SDS011;33202;48.512;-2.780;2023-03-13T08:52:07;29.02;;;7.75;;
47455;SDS011;33202;48.512;-2.780;2023-03-13T08:54:33;35.70;;;8.55;;
47455;SDS011;33202;48.512;-2.780;2023-03-13T08:56:59;39.00;;;7.38;;
47455;SDS011;33202;48.512;-2.780;2023-03-13T08:59:25;31.95;;;7.65;;
47455;SDS011;33202;48.512;-2.780;2023-03-13T09:01:50;53.33;;;8.73;;
47455;SDS011;33202;48.512;-2.780;2023-03-13T09:04:16;40.15;;;7.53;;
47455;SDS011;33202;48.512;-2.780;2023-03-13T09:06:44;28.42;;;5.85;;
47455;SDS011;33202;48.512;-2.780;2023-03-13T09:09:10;33.72;;;5.97;;
47455;SDS011;33202;48.512;-2.780;2023-03-13T09:11:37;29.40;;;6.20;;
47455;SDS011;33202;48.512;-2.780;2023-03-13T09:14:03;39.90;;;8.23;;
47455;SDS011;33202;48.512;-2.780;2023-03-13T09:16:30;35.33;;;7.68;;
47455;SDS011;33202;48.512;-2.780;2023-03-13T09:18:56;31.83;;;8.18;;
47455;SDS011;33202;48.512;-2.780;2023-03-13T09:21:24;30.98;;;6.65;;
47455;SDS011;33202;48.512;-2.780;2023-03-13T09:23:51;35.58;;;5.90;;
47455;SDS011;33202;48.512;-2.780;2023-03-13T09:26:18;40.38;;;7.05;;
47455;SDS011;33202;48.512;-2.780;2023-03-13T09:28:44;30.10;;;6.38;;
47455;SDS011;33202;48.512;-2.780;2023-03-13T09:31:11;34.30;;;7.03;;
47455;SDS011;33202;48.512;-2.780;2023-03-13T09:33:38;38.83;;;6.60;;
47455;SDS011;33202;48.512;-2.780;2023-03-13T09:36:05;33.72;;;6.88;;
47455;SDS011;33202;48.512;-2.780;2023-03-13T09:38:32;41.15;;;6.75;;
47455;SDS011;33202;48.512;-2.780;2023-03-13T09:41:10;29.37;;;6.37;;
47455;SDS011;33202;48.512;-2.780;2023-03-13T09:46:40;30.15;;;6.40;;
47455;SDS011;33202;48.512;-2.780;2023-03-13T09:51:53;36.00;;;6.97;;
47455;SDS011;33202;48.512;-2.780;2023-03-13T09:54:37;24.38;;;6.30;;
47455;SDS011;33202;48.512;-2.780;2023-03-13T09:57:19;30.90;;;5.68;;
47455;SDS011;33202;48.512;-2.780;2023-03-13T10:05:38;28.10;;;6.03;;
47455;SDS011;33202;48.512;-2.780;2023-03-13T10:08:23;34.70;;;6.22;;
47455;SDS011;33202;48.512;-2.780;2023-03-13T10:10:53;33.50;;;6.80;;
47455;SDS011;33202;48.512;-2.780;2023-03-13T10:16:01;34.72;;;6.30;;
47455;SDS011;33202;48.512;-2.780;2023-03-13T10:18:33;34.15;;;7.65;;
47455;SDS011;33202;48.512;-2.780;2023-03-13T10:21:00;35.92;;;7.18;;
47455;SDS011;33202;48.512;-2.780;2023-03-13T10:26:37;33.38;;;5.85;;
47455;SDS011;33202;48.512;-2.780;2023-03-13T10:32:00;29.88;;;5.65;;
47455;SDS011;33202;48.512;-2.780;2023-03-13T10:34:29;32.78;;;5.85;;
47455;SDS011;33202;48.512;-2.780;2023-03-13T10:36:56;26.48;;;6.55;;
47455;SDS011;33202;48.512;-2.780;2023-03-13T10:39:23;37.42;;;6.70;;
47455;SDS011;33202;48.512;-2.780;2023-03-13T10:41:50;26.83;;;5.70;;
47455;SDS011;33202;48.512;-2.780;2023-03-13T10:44:21;24.73;;;5.22;;
47455;SDS011;33202;48.512;-2.780;2023-03-13T10:46:48;34.95;;;5.88;;
47455;SDS011;33202;48.512;-2.780;2023-03-13T10:49:16;30.67;;;5.70;;
47455;SDS011;33202;48.512;-2.780;2023-03-13T10:51:46;28.75;;;5.38;;
47455;SDS011;33202;48.512;-2.780;2023-03-13T10:54:26;29.90;;;5.72;;
47455;SDS011;33202;48.512;-2.780;2023-03-13T10:57:07;28.73;;;6.03;;
47455;SDS011;33202;48.512;-2.780;2023-03-13T10:59:33;30.48;;;5.68;;
47455;SDS011;33202;48.512;-2.780;2023-03-13T11:02:12;27.92;;;5.82;;
47455;SDS011;33202;48.512;-2.780;2023-03-13T11:04:42;32.60;;;6.70;;
47455;SDS011;33202;48.512;-2.780;2023-03-13T11:07:15;29.75;;;5.28;;
47455;SDS011;33202;48.512;-2.780;2023-03-13T11:09:41;34.28;;;5.25;;
47455;SDS011;33202;48.512;-2.780;2023-03-13T11:12:16;32.05;;;5.68;;
47455;SDS011;33202;48.512;-2.780;2023-03-13T11:14:43;29.98;;;5.45;;
47455;SDS011;33202;48.512;-2.780;2023-03-13T11:17:14;23.10;;;5.73;;
47455;SDS011;33202;48.512;-2.780;2023-03-13T11:20:26;24.90;;;5.43;;
47455;SDS011;33202;48.512;-2.780;2023-03-13T11:35:52;33.97;;;5.38;;
47455;SDS011;33202;48.512;-2.780;2023-03-13T11:37:56;31.92;;;5.40;;
47455;SDS011;33202;48.512;-2.780;2023-03-13T11:50:42;27.10;;;5.25;;
47455;SDS011;33202;48.512;-2.780;2023-03-13T12:06:06;27.85;;;4.65;;
47455;SDS011;33202;48.512;-2.780;2023-03-13T12:13:31;21.92;;;4.20;;
47455;SDS011;33202;48.512;-2.780;2023-03-13T12:16:00;22.50;;;4.43;;
47455;SDS011;33202;48.512;-2.780;2023-03-13T12:29:17;23.35;;;4.47;;
47455;SDS011;33202;48.512;-2.780;2023-03-13T12:34:26;24.33;;;5.00;;
47455;SDS011;33202;48.512;-2.780;2023-03-13T12:36:57;38.30;;;6.93;;
47455;SDS011;33202;48.512;-2.780;2023-03-13T12:44:31;26.67;;;4.97;;
47455;SDS011;33202;48.512;-2.780;2023-03-13T13:00:21;20.60;;;4.68;;
47455;SDS011;33202;48.512;-2.780;2023-03-13T13:03:00;28.40;;;4.88;;
47455;SDS011;33202;48.512;-2.780;2023-03-13T13:05:27;28.67;;;5.35;;
47455;SDS011;33202;48.512;-2.780;2023-03-13T13:07:54;26.38;;;4.55;;
47455;SDS011;33202;48.512;-2.780;2023-03-13T13:10:21;22.45;;;5.03;;
47455;SDS011;33202;48.512;-2.780;2023-03-13T13:15:34;25.08;;;4.90;;
47455;SDS011;33202;48.512;-2.780;2023-03-13T13:25:46;29.25;;;6.15;;
47455;SDS011;33202;48.512;-2.780;2023-03-13T13:30:46;24.02;;;5.18;;
47455;SDS011;33202;48.512;-2.780;2023-03-13T13:36:38;23.27;;;5.00;;
47455;SDS011;33202;48.512;-2.780;2023-03-13T13:38:45;19.83;;;5.10;;
47455;SDS011;33202;48.512;-2.780;2023-03-13T13:43:41;27.77;;;5.28;;
47455;SDS011;33202;48.512;-2.780;2023-03-13T14:01:25;21.08;;;4.43;;
47455;SDS011;33202;48.512;-2.780;2023-03-13T14:03:52;20.75;;;4.40;;
47455;SDS011;33202;48.512;-2.780;2023-03-13T14:08:45;27.10;;;4.85;;
47455;SDS011;33202;48.512;-2.780;2023-03-13T14:13:43;26.38;;;4.75;;
47455;SDS011;33202;48.512;-2.780;2023-03-13T14:16:17;31.52;;;5.40;;
47455;SDS011;33202;48.512;-2.780;2023-03-13T14:18:44;24.98;;;5.07;;
47455;SDS011;33202;48.512;-2.780;2023-03-13T14:21:10;28.83;;;5.05;;
47455;SDS011;33202;48.512;-2.780;2023-03-13T14:23:42;26.42;;;5.18;;
47455;SDS011;33202;48.512;-2.780;2023-03-13T14:28:36;26.52;;;6.03;;
47455;SDS011;33202;48.512;-2.780;2023-03-13T14:31:03;26.33;;;5.05;;
47455;SDS011;33202;48.512;-2.780;2023-03-13T14:33:29;16.67;;;4.15;;
47455;SDS011;33202;48.512;-2.780;2023-03-13T14:35:55;26.10;;;4.25;;
47455;SDS011;33202;48.512;-2.780;2023-03-13T14:38:25;16.58;;;3.20;;
47455;SDS011;33202;48.512;-2.780;2023-03-13T14:40:51;17.20;;;3.33;;
47455;SDS011;33202;48.512;-2.780;2023-03-13T14:43:29;15.05;;;3.33;;
47455;SDS011;33202;48.512;-2.780;2023-03-13T14:45:56;13.07;;;2.90;;
47455;SDS011;33202;48.512;-2.780;2023-03-13T14:48:25;15.25;;;2.65;;
47455;SDS011;33202;48.512;-2.780;2023-03-13T14:50:53;13.30;;;3.13;;
47455;SDS011;33202;48.512;-2.780;2023-03-13T14:53:25;8.90;;;1.83;;
47455;SDS011;33202;48.512;-2.780;2023-03-13T14:58:36;8.38;;;1.50;;
47455;SDS011;33202;48.512;-2.780;2023-03-13T15:01:13;9.70;;;1.88;;
47455;SDS011;33202;48.512;-2.780;2023-03-13T15:03:43;9.35;;;1.67;;
47455;SDS011;33202;48.512;-2.780;2023-03-13T15:08:43;10.07;;;1.70;;
47455;SDS011;33202;48.512;-2.780;2023-03-13T15:11:19;9.95;;;2.28;;
47455;SDS011;33202;48.512;-2.780;2023-03-13T15:13:45;11.07;;;2.00;;
47455;SDS011;33202;48.512;-2.780;2023-03-13T15:16:18;8.57;;;1.98;;
47455;SDS011;33202;48.512;-2.780;2023-03-13T15:18:46;12.45;;;2.20;;
47455;SDS011;33202;48.512;-2.780;2023-03-13T15:23:38;10.10;;;2.15;;
47455;SDS011;33202;48.512;-2.780;2023-03-13T15:26:04;15.95;;;2.50;;
47455;SDS011;33202;48.512;-2.780;2023-03-13T15:28:31;12.77;;;2.55;;
47455;SDS011;33202;48.512;-2.780;2023-03-13T15:30:57;14.73;;;2.72;;
47455;SDS011;33202;48.512;-2.780;2023-03-13T15:33:25;10.07;;;2.38;;
47455;SDS011;33202;48.512;-2.780;2023-03-13T15:35:51;9.98;;;2.20;;
47455;SDS011;33202;48.512;-2.780;2023-03-13T15:38:18;13.70;;;3.08;;
47455;SDS011;33202;48.512;-2.780;2023-03-13T15:40:44;13.30;;;2.72;;
47455;SDS011;33202;48.512;-2.780;2023-03-13T15:43:11;15.20;;;2.95;;
47455;SDS011;33202;48.512;-2.780;2023-03-13T15:45:37;16.90;;;2.65;;
47455;SDS011;33202;48.512;-2.780;2023-03-13T15:48:14;14.25;;;2.83;;
47455;SDS011;33202;48.512;-2.780;2023-03-13T15:50:41;13.85;;;2.85;;
47455;SDS011;33202;48.512;-2.780;2023-03-13T15:53:26;17.95;;;3.25;;
47455;SDS011;33202;48.512;-2.780;2023-03-13T15:55:53;17.38;;;2.92;;
47455;SDS011;33202;48.512;-2.780;2023-03-13T15:58:19;17.88;;;3.28;;
47455;SDS011;33202;48.512;-2.780;2023-03-13T16:00:45;21.23;;;3.25;;
47455;SDS011;33202;48.512;-2.780;2023-03-13T16:03:16;17.25;;;3.15;;
47455;SDS011;33202;48.512;-2.780;2023-03-13T16:05:43;11.88;;;2.42;;
47455;SDS011;33202;48.512;-2.780;2023-03-13T16:08:13;9.18;;;1.60;;
47455;SDS011;33202;48.512;-2.780;2023-03-13T16:10:39;9.57;;;2.47;;
47455;SDS011;33202;48.512;-2.780;2023-03-13T16:13:06;12.80;;;2.88;;
47455;SDS011;33202;48.512;-2.780;2023-03-13T16:15:33;15.50;;;3.30;;
47455;SDS011;33202;48.512;-2.780;2023-03-13T16:17:59;23.08;;;5.15;;
47455;SDS011;33202;48.512;-2.780;2023-03-13T16:20:25;14.55;;;3.38;;
47455;SDS011;33202;48.512;-2.780;2023-03-13T16:22:53;21.63;;;4.05;;
47455;SDS011;33202;48.512;-2.780;2023-03-13T16:25:19;23.38;;;4.30;;
47455;SDS011;33202;48.512;-2.780;2023-03-13T16:27:45;25.13;;;3.83;;
47455;SDS011;33202;48.512;-2.780;2023-03-13T16:32:38;20.00;;;4.43;;
47455;SDS011;33202;48.512;-2.780;2023-03-13T16:35:04;13.70;;;2.80;;
47455;SDS011;33202;48.512;-2.780;2023-03-13T16:37:30;17.25;;;2.80;;
47455;SDS011;33202;48.512;-2.780;2023-03-13T16:39:56;18.55;;;3.20;;
47455;SDS011;33202;48.512;-2.780;2023-03-13T16:42:22;17.35;;;3.63;;
47455;SDS011;33202;48.512;-2.780;2023-03-13T16:44:48;17.45;;;3.47;;
47455;SDS011;33202;48.512;-2.780;2023-03-13T16:47:16;14.65;;;3.40;;
47455;SDS011;33202;48.512;-2.780;2023-03-13T16:49:44;14.13;;;2.85;;
47455;SDS011;33202;48.512;-2.780;2023-03-13T16:52:14;19.30;;;4.20;;
47455;SDS011;33202;48.512;-2.780;2023-03-13T16:54:40;18.55;;;3.47;;
47455;SDS011;33202;48.512;-2.780;2023-03-13T16:57:16;13.35;;;3.15;;